createdAt,value
2022-12-23T00:01:15.603Z,542.67
2022-12-23T00:03:19.016Z,537.63
2022-12-23T00:05:22.499Z,542.83
2022-12-23T00:07:25.936Z,532.95
2022-12-23T00:09:31.616Z,535.42
2022-12-23T00:11:34.936Z,541.50
2022-12-23T00:13:55.933Z,535.35
2022-12-23T00:16:03.025Z,541.38
2022-12-23T00:18:06.457Z,544.25
2022-12-23T00:20:11.704Z,535.17
2022-12-23T00:22:15.007Z,538.35
2022-12-23T00:24:18.344Z,542.22
2022-12-23T00:26:24.816Z,543.30
2022-12-23T00:28:30.551Z,530.60
2022-12-23T00:30:34.014Z,535.30
2022-12-23T00:32:37.502Z,535.38
2022-12-23T00:34:40.821Z,536.45
2022-12-23T00:36:44.191Z,533.38
2022-12-23T00:39:05.745Z,537.72
2022-12-23T00:41:29.224Z,537.38
2022-12-23T00:43:33.900Z,541.47
2022-12-23T00:45:37.766Z,537.92
2022-12-23T00:47:58.799Z,532.58
2022-12-23T00:50:02.106Z,538.40
2022-12-23T00:52:07.550Z,530.40
2022-12-23T00:54:11.041Z,538.58
2022-12-23T00:56:14.461Z,539.65
2022-12-23T00:58:18.804Z,534.28
2022-12-23T01:00:44.494Z,534.75
2022-12-23T01:03:05.666Z,538.88
2022-12-23T01:05:37.443Z,536.58
2022-12-23T01:07:42.331Z,530.20
2022-12-23T01:09:45.882Z,533.17
2022-12-23T01:11:49.271Z,547.38
2022-12-23T01:13:52.655Z,553.60
2022-12-23T01:16:02.118Z,539.47
2022-12-23T01:18:05.681Z,538.60
2022-12-23T01:20:09.916Z,544.47
2022-12-23T01:22:13.279Z,542.03
2022-12-23T01:24:16.699Z,550.58
2022-12-23T01:26:20.010Z,551.92
2022-12-23T01:28:23.347Z,531.65
2022-12-23T01:30:27.258Z,529.53
2022-12-23T01:32:31.947Z,536.90
2022-12-23T01:34:37.408Z,546.40
2022-12-23T01:36:41.083Z,530.65
2022-12-23T01:38:45.002Z,531.25
2022-12-23T01:40:48.426Z,547.75
2022-12-23T01:42:50.911Z,534.15
2022-12-23T01:45:00.532Z,540.58
2022-12-23T01:47:04.938Z,552.28
2022-12-23T01:49:09.807Z,551.92
2022-12-23T01:51:15.912Z,536.85
2022-12-23T01:53:21.835Z,559.67
2022-12-23T01:55:27.809Z,533.05
2022-12-23T01:57:31.650Z,525.30
2022-12-23T01:59:52.782Z,533.83
2022-12-23T02:02:13.861Z,531.45
2022-12-23T02:04:21.605Z,541.40
2022-12-23T02:06:46.227Z,554.70
2022-12-23T02:09:07.696Z,553.10
2022-12-23T02:11:35.334Z,531.40
2022-12-23T02:14:03.303Z,537.75
2022-12-23T02:16:18.702Z,550.40
2022-12-23T02:18:47.119Z,535.50
2022-12-23T02:21:12.152Z,532.08
2022-12-23T02:23:51.205Z,550.53
2022-12-23T02:26:10.501Z,530.78
2022-12-23T02:28:57.563Z,536.80
2022-12-23T02:31:10.437Z,535.88
2022-12-23T02:33:29.078Z,530.63
2022-12-23T02:35:41.760Z,540.88
2022-12-23T02:37:54.126Z,549.33
2022-12-23T02:40:02.928Z,541.10
2022-12-23T02:42:12.246Z,540.08
2022-12-23T02:44:24.748Z,529.22
2022-12-23T02:46:34.809Z,536.00
2022-12-23T02:48:42.577Z,533.10
2022-12-23T02:50:47.073Z,553.38
2022-12-23T02:52:52.865Z,537.35
2022-12-23T02:55:02.016Z,529.67
2022-12-23T02:57:08.717Z,533.53
2022-12-23T02:59:18.496Z,533.47
2022-12-23T03:01:22.230Z,544.72
2022-12-23T03:03:27.876Z,551.70
2022-12-23T03:05:35.705Z,543.42
2022-12-23T03:07:43.677Z,546.58
2022-12-23T03:09:58.177Z,541.00
2022-12-23T03:12:07.952Z,551.85
2022-12-23T03:14:29.491Z,541.10
2022-12-23T03:16:45.254Z,537.70
2022-12-23T03:19:03.537Z,542.95
2022-12-23T03:21:11.996Z,536.80
2022-12-23T03:23:22.542Z,549.67
2022-12-23T03:25:32.492Z,542.15
2022-12-23T03:27:41.454Z,540.20
2022-12-23T03:29:52.604Z,538.45
2022-12-23T03:32:00.928Z,535.97
2022-12-23T03:34:11.110Z,544.13
2022-12-23T03:36:19.324Z,536.55
2022-12-23T03:38:24.026Z,538.25
2022-12-23T03:40:31.580Z,556.95
2022-12-23T03:42:37.811Z,537.55
2022-12-23T03:45:10.687Z,531.13
2022-12-23T03:47:13.085Z,533.03
2022-12-23T03:49:25.278Z,547.40
2022-12-23T03:51:34.656Z,551.55
2022-12-23T03:53:43.295Z,533.28
2022-12-23T03:55:52.216Z,549.95
2022-12-23T03:58:02.068Z,545.33
2022-12-23T04:00:06.641Z,532.65
2022-12-23T04:02:14.352Z,547.63
2022-12-23T04:04:26.291Z,541.15
2022-12-23T04:06:37.339Z,550.10
2022-12-23T04:08:42.929Z,538.05
2022-12-23T04:10:46.893Z,533.58
2022-12-23T04:12:51.155Z,528.17
2022-12-23T04:14:54.825Z,530.75
2022-12-23T04:16:59.265Z,535.50
2022-12-23T04:19:02.790Z,531.75
2022-12-23T04:21:07.535Z,541.42
2022-12-23T04:23:10.941Z,529.03
2022-12-23T04:25:15.676Z,547.88
2022-12-23T04:27:19.026Z,539.63
2022-12-23T04:29:22.394Z,551.75
2022-12-23T04:31:25.751Z,532.58
2022-12-23T04:33:29.130Z,532.65
2022-12-23T04:35:32.768Z,541.47
2022-12-23T04:37:37.735Z,544.10
2022-12-23T04:39:41.083Z,532.55
2022-12-23T04:41:44.389Z,553.05
2022-12-23T04:43:52.810Z,537.83
2022-12-23T04:45:56.727Z,541.80
2022-12-23T04:48:00.185Z,540.83
2022-12-23T04:50:03.883Z,543.75
2022-12-23T04:52:07.748Z,540.85
2022-12-23T04:54:12.446Z,537.78
2022-12-23T04:56:15.855Z,539.17
2022-12-23T04:58:21.959Z,539.90
2022-12-23T05:00:25.520Z,537.25
2022-12-23T05:02:28.966Z,539.20
2022-12-23T05:04:32.645Z,540.75
2022-12-23T05:06:36.083Z,540.92
2022-12-23T05:08:39.604Z,541.30
2022-12-23T05:10:45.728Z,547.72
2022-12-23T05:12:49.102Z,536.95
2022-12-23T05:14:53.399Z,534.50
2022-12-23T05:16:59.616Z,555.25
2022-12-23T05:19:07.192Z,538.30
2022-12-23T05:21:10.790Z,540.15
2022-12-23T05:23:14.274Z,538.50
2022-12-23T05:25:17.884Z,534.92
2022-12-23T05:27:22.649Z,548.00
2022-12-23T05:29:26.023Z,562.30
2022-12-23T05:31:29.526Z,534.13
2022-12-23T05:33:33.981Z,544.53
2022-12-23T05:35:37.471Z,538.05
2022-12-23T05:37:40.840Z,540.42
2022-12-23T05:39:44.177Z,538.50
2022-12-23T05:41:47.562Z,548.80
2022-12-23T05:43:52.401Z,556.40
2022-12-23T05:45:56.075Z,538.40
2022-12-23T05:47:59.618Z,544.58
2022-12-23T05:50:03.308Z,534.75
2022-12-23T05:52:07.913Z,529.15
2022-12-23T05:54:11.213Z,532.17
2022-12-23T05:56:14.571Z,532.92
2022-12-23T05:58:18.487Z,537.65
2022-12-23T06:00:23.540Z,540.45
2022-12-23T06:02:27.128Z,539.33
2022-12-23T06:04:30.667Z,539.40
2022-12-23T06:06:34.061Z,532.13
2022-12-23T06:08:37.622Z,551.20
2022-12-23T06:10:40.991Z,544.28
2022-12-23T06:12:44.364Z,555.97
2022-12-23T06:14:47.697Z,541.30
2022-12-23T06:16:52.543Z,533.75
2022-12-23T06:18:56.692Z,534.38
2022-12-23T06:21:01.715Z,528.85
2022-12-23T06:23:06.074Z,546.03
2022-12-23T06:25:10.095Z,530.53
2022-12-23T06:27:13.425Z,518.15
2022-12-23T06:29:16.767Z,533.63
2022-12-23T06:31:20.168Z,525.88
2022-12-23T06:33:25.645Z,539.33
2022-12-23T06:35:29.115Z,532.35
2022-12-23T06:37:32.450Z,543.70
2022-12-23T06:39:35.771Z,550.47
2022-12-23T06:41:39.268Z,532.85
2022-12-23T06:43:42.723Z,529.95
2022-12-23T06:45:48.361Z,548.92
2022-12-23T06:47:51.821Z,545.15
2022-12-23T06:49:56.490Z,539.58
2022-12-23T06:51:59.973Z,530.10
2022-12-23T06:54:03.554Z,532.83
2022-12-23T06:56:07.955Z,546.45
2022-12-23T06:58:11.465Z,535.58
2022-12-23T07:00:16.379Z,531.65
2022-12-23T07:02:19.830Z,540.25
2022-12-23T07:04:23.283Z,560.72
2022-12-23T07:06:28.020Z,542.08
2022-12-23T07:08:31.359Z,541.67
2022-12-23T07:10:34.993Z,554.88
2022-12-23T07:12:38.509Z,550.35
2022-12-23T07:14:41.915Z,554.20
2022-12-23T07:16:45.316Z,538.28
2022-12-23T07:18:48.839Z,542.53
2022-12-23T07:20:52.941Z,535.22
2022-12-23T07:22:58.229Z,550.13
2022-12-23T07:25:01.615Z,546.85
2022-12-23T07:27:05.280Z,548.70
2022-12-23T07:29:08.783Z,538.90
2022-12-23T07:31:12.300Z,541.15
2022-12-23T07:33:16.175Z,542.05
2022-12-23T07:35:20.446Z,558.72
2022-12-23T07:37:23.916Z,542.30
2022-12-23T07:39:28.813Z,547.45
2022-12-23T07:41:32.204Z,544.03
2022-12-23T07:43:42.550Z,540.05
2022-12-23T07:45:45.985Z,548.42
2022-12-23T07:47:53.286Z,561.30
2022-12-23T07:49:56.673Z,554.40
2022-12-23T07:52:00.101Z,544.00
2022-12-23T07:54:03.509Z,538.10
2022-12-23T07:56:09.133Z,531.60
2022-12-23T07:58:12.450Z,554.40
2022-12-23T08:00:16.399Z,547.13
2022-12-23T08:02:22.051Z,548.65
2022-12-23T08:04:25.671Z,539.63
2022-12-23T08:06:29.034Z,534.10
2022-12-23T08:08:32.907Z,551.55
2022-12-23T08:10:36.236Z,544.60
2022-12-23T08:12:41.070Z,540.00
2022-12-23T08:14:45.581Z,562.47
2022-12-23T08:16:49.436Z,534.10
2022-12-23T08:18:52.842Z,533.88
2022-12-23T08:20:57.235Z,534.55
2022-12-23T08:23:00.586Z,547.95
2022-12-23T08:25:04.321Z,546.92
2022-12-23T08:27:07.702Z,543.15
2022-12-23T08:29:12.521Z,551.70
2022-12-23T08:31:17.771Z,538.53
2022-12-23T08:33:21.210Z,541.40
2022-12-23T08:35:24.623Z,546.60
2022-12-23T08:37:27.967Z,532.60
2022-12-23T08:39:31.345Z,537.97
2022-12-23T08:41:38.300Z,543.35
2022-12-23T08:43:41.848Z,542.35
2022-12-23T08:45:46.696Z,555.35
2022-12-23T08:47:50.130Z,542.45
2022-12-23T08:49:53.535Z,525.60
2022-12-23T08:51:57.034Z,524.40
2022-12-23T08:54:01.838Z,543.15
2022-12-23T08:56:07.181Z,538.47
2022-12-23T08:58:11.142Z,539.15
2022-12-23T09:00:15.386Z,544.22
2022-12-23T09:02:22.209Z,521.97
2022-12-23T09:04:25.811Z,553.30
2022-12-23T09:06:33.631Z,541.60
2022-12-23T09:08:37.780Z,539.42
2022-12-23T09:10:42.652Z,539.20
2022-12-23T09:12:46.284Z,540.13
2022-12-23T09:14:49.663Z,534.92
2022-12-23T09:16:53.107Z,530.13
2022-12-23T09:18:58.224Z,534.33
2022-12-23T09:21:04.411Z,533.28
2022-12-23T09:23:08.154Z,525.28
2022-12-23T09:25:11.543Z,529.67
2022-12-23T09:27:14.895Z,536.47
2022-12-23T09:29:18.218Z,538.80
2022-12-23T09:31:26.792Z,531.28
2022-12-23T09:33:32.700Z,526.10
2022-12-23T09:35:37.409Z,537.45
2022-12-23T09:37:40.885Z,540.17
2022-12-23T09:39:44.496Z,533.30
2022-12-23T09:42:01.261Z,532.67
2022-12-23T09:44:22.554Z,532.33
2022-12-23T09:46:31.000Z,531.72
2022-12-23T09:48:42.660Z,524.78
2022-12-23T09:50:47.467Z,538.97
2022-12-23T09:52:59.922Z,535.40
2022-12-23T09:55:03.252Z,527.10
2022-12-23T09:57:19.843Z,529.75
2022-12-23T09:59:34.947Z,527.38
2022-12-23T10:01:46.023Z,540.47
2022-12-23T10:04:16.265Z,531.63
2022-12-23T10:06:26.618Z,528.58
2022-12-23T10:08:34.148Z,527.80
2022-12-23T10:10:42.100Z,530.72
2022-12-23T10:12:48.915Z,536.35
2022-12-23T10:14:56.921Z,535.05
2022-12-23T10:17:06.688Z,536.20
2022-12-23T10:19:16.844Z,532.60
2022-12-23T10:21:31.250Z,525.20
2022-12-23T10:23:38.598Z,530.72
2022-12-23T10:25:50.067Z,528.88
2022-12-23T10:27:53.493Z,539.45
2022-12-23T10:30:09.450Z,524.08
2022-12-23T10:32:29.428Z,527.08
2022-12-23T10:34:40.665Z,527.53
2022-12-23T10:36:54.666Z,535.05
2022-12-23T10:39:05.389Z,528.28
2022-12-23T10:41:18.087Z,532.88
2022-12-23T10:43:27.732Z,539.75
2022-12-23T10:45:49.519Z,526.08
2022-12-23T10:48:08.621Z,543.20
2022-12-23T10:50:45.869Z,549.72
2022-12-23T10:52:53.557Z,534.50
2022-12-23T10:54:56.905Z,530.05
2022-12-23T10:57:01.231Z,536.10
2022-12-23T10:59:06.573Z,527.00
2022-12-23T11:01:21.855Z,529.97
2022-12-23T11:03:32.280Z,534.38
2022-12-23T11:05:36.845Z,534.95
2022-12-23T11:07:45.389Z,535.80
2022-12-23T11:09:55.218Z,536.88
2022-12-23T11:12:01.127Z,535.60
2022-12-23T11:14:04.509Z,532.47
2022-12-23T11:16:15.960Z,533.38
2022-12-23T11:18:21.862Z,537.80
2022-12-23T11:20:25.905Z,531.40
2022-12-23T11:22:29.508Z,540.67
2022-12-23T11:24:37.964Z,531.53
2022-12-23T11:26:48.322Z,530.28
2022-12-23T11:29:03.864Z,540.28
2022-12-23T11:31:11.819Z,529.35
2022-12-23T11:33:23.889Z,523.70
2022-12-23T11:35:29.448Z,523.72
2022-12-23T11:37:37.839Z,528.85
2022-12-23T11:39:47.378Z,538.10
2022-12-23T11:41:55.736Z,522.35
2022-12-23T11:44:02.523Z,532.40
2022-12-23T11:46:17.693Z,530.00
2022-12-23T11:48:29.009Z,532.33
2022-12-23T11:50:35.975Z,528.03
2022-12-23T11:52:51.679Z,531.38
2022-12-23T11:54:56.441Z,533.65
2022-12-23T11:57:04.690Z,526.05
2022-12-23T11:59:17.056Z,533.80
2022-12-23T12:01:24.810Z,544.28
2022-12-23T12:03:32.707Z,537.13
2022-12-23T12:05:39.167Z,531.33
2022-12-23T12:07:43.191Z,537.88
2022-12-23T12:09:46.545Z,529.20
2022-12-23T12:11:53.057Z,525.13
2022-12-23T12:14:01.117Z,530.30
2022-12-23T12:16:21.189Z,523.03
2022-12-23T12:18:25.355Z,521.63
2022-12-23T12:20:32.424Z,534.45
2022-12-23T12:22:40.282Z,537.13
2022-12-23T12:24:49.245Z,536.22
2022-12-23T12:26:54.641Z,530.00
2022-12-23T12:29:03.709Z,531.97
2022-12-23T12:31:17.921Z,527.45
2022-12-23T12:33:28.813Z,527.40
2022-12-23T12:35:38.908Z,520.22
2022-12-23T12:37:49.205Z,563.83
2022-12-23T12:39:56.899Z,533.53
2022-12-23T12:42:06.353Z,528.25
2022-12-23T12:44:29.035Z,520.85
2022-12-23T12:46:39.104Z,528.85
2022-12-23T12:48:48.360Z,528.80
2022-12-23T12:50:59.125Z,520.22
2022-12-23T12:53:11.292Z,537.40
2022-12-23T12:55:22.347Z,531.40
2022-12-23T12:57:26.363Z,537.42
2022-12-23T12:59:35.722Z,529.08
2022-12-23T13:01:49.330Z,528.35
2022-12-23T13:04:22.702Z,520.95
2022-12-23T13:06:32.371Z,528.05
2022-12-23T13:08:55.525Z,529.08
2022-12-23T13:11:06.750Z,520.45
2022-12-23T13:13:24.518Z,541.47
2022-12-23T13:15:35.264Z,520.20
2022-12-23T13:17:46.235Z,538.78
2022-12-23T13:19:54.467Z,525.67
2022-12-23T13:22:04.179Z,536.50
2022-12-23T13:24:17.089Z,530.28
2022-12-23T13:26:30.933Z,523.10
2022-12-23T13:28:41.411Z,527.63
2022-12-23T13:30:54.108Z,526.28
2022-12-23T13:33:08.259Z,532.33
2022-12-23T13:35:30.382Z,522.25
2022-12-23T13:37:40.579Z,528.67
2022-12-23T13:39:55.237Z,522.47
2022-12-23T13:42:05.941Z,517.85
2022-12-23T13:44:11.271Z,518.45
2022-12-23T13:46:25.529Z,540.85
2022-12-23T13:48:37.850Z,519.30
2022-12-23T13:50:46.689Z,520.70
2022-12-23T13:53:07.215Z,521.65
2022-12-23T13:55:23.045Z,523.38
2022-12-23T13:57:41.457Z,525.45
2022-12-23T14:00:04.970Z,523.72
2022-12-23T14:02:52.859Z,516.72
2022-12-23T14:05:00.819Z,520.08
2022-12-23T14:07:08.286Z,517.92
2022-12-23T14:09:16.225Z,524.95
2022-12-23T14:11:23.350Z,518.13
2022-12-23T14:13:31.146Z,520.00
2022-12-23T14:15:49.025Z,517.53
2022-12-23T14:18:08.773Z,535.88
2022-12-23T14:20:26.995Z,517.63
2022-12-23T14:22:58.593Z,513.75
2022-12-23T14:25:30.300Z,516.08
2022-12-23T14:27:51.957Z,518.47
2022-12-23T14:30:06.212Z,516.03
2022-12-23T14:32:20.859Z,512.13
2022-12-23T14:34:30.195Z,515.38
2022-12-23T14:36:33.741Z,520.15
2022-12-23T14:38:37.359Z,518.70
2022-12-23T14:40:58.182Z,520.45
2022-12-23T14:43:25.864Z,521.70
2022-12-23T14:45:34.806Z,523.55
2022-12-23T14:47:40.582Z,533.47
2022-12-23T14:49:45.566Z,527.97
2022-12-23T14:51:50.843Z,517.88
2022-12-23T14:54:13.641Z,525.15
2022-12-23T14:56:24.482Z,538.58
2022-12-23T14:58:42.387Z,519.00
2022-12-23T15:00:51.001Z,528.08
2022-12-23T15:02:58.244Z,520.67
2022-12-23T15:05:03.570Z,519.72
2022-12-23T15:07:10.095Z,525.53
2022-12-23T15:09:23.467Z,598.83
2022-12-23T15:11:29.897Z,571.03
2022-12-23T15:13:34.133Z,524.13
2022-12-23T15:15:37.599Z,527.25
2022-12-23T15:17:41.233Z,527.97
2022-12-23T15:19:48.938Z,529.88
2022-12-23T15:22:17.847Z,528.63
2022-12-23T15:24:24.401Z,523.75
2022-12-23T15:26:31.231Z,517.15
2022-12-23T15:28:38.574Z,538.38
2022-12-23T15:30:50.669Z,521.35
2022-12-23T15:32:59.572Z,530.63
2022-12-23T15:35:06.981Z,527.88
2022-12-23T15:37:14.037Z,527.03
2022-12-23T15:39:20.883Z,526.38
2022-12-23T15:41:24.358Z,532.83
2022-12-23T15:43:28.453Z,527.67
2022-12-23T15:45:36.536Z,543.35
2022-12-23T15:47:41.818Z,525.85
2022-12-23T15:49:45.920Z,532.50
2022-12-23T15:52:12.589Z,537.00
2022-12-23T15:54:23.661Z,535.78
2022-12-23T15:56:30.934Z,544.83
2022-12-23T15:58:36.437Z,536.20
2022-12-23T16:00:42.582Z,533.50
2022-12-23T16:03:03.332Z,536.55
2022-12-23T16:05:09.627Z,530.40
2022-12-23T16:07:25.597Z,542.50
2022-12-23T16:09:36.061Z,539.47
2022-12-23T16:11:48.736Z,532.75
2022-12-23T16:13:58.848Z,541.15
2022-12-23T16:16:30.305Z,535.47
2022-12-23T16:18:46.973Z,538.63
2022-12-23T16:20:54.523Z,542.38
2022-12-23T16:23:01.623Z,530.55
2022-12-23T16:25:12.870Z,532.70
2022-12-23T16:27:19.392Z,536.67
2022-12-23T16:29:23.238Z,546.00
2022-12-23T16:31:26.715Z,536.60
2022-12-23T16:33:37.509Z,557.20
2022-12-23T16:35:42.954Z,543.83
2022-12-23T16:37:51.096Z,565.67
2022-12-23T16:39:54.794Z,553.03
2022-12-23T16:41:59.589Z,563.80
2022-12-23T16:44:03.125Z,560.22
2022-12-23T16:46:08.327Z,545.83
2022-12-23T16:48:20.713Z,547.00
2022-12-23T16:50:24.651Z,552.25
2022-12-23T16:52:28.034Z,543.30
2022-12-23T16:54:31.399Z,553.90
2022-12-23T16:56:36.581Z,550.45
2022-12-23T16:58:41.374Z,559.60
2022-12-23T17:00:45.443Z,553.28
2022-12-23T17:02:49.059Z,561.25
2022-12-23T17:04:52.861Z,562.88
2022-12-23T17:06:56.237Z,565.72
2022-12-23T17:08:59.702Z,554.42
2022-12-23T17:11:03.269Z,547.35
2022-12-23T17:13:06.739Z,545.13
2022-12-23T17:15:17.945Z,546.78
2022-12-23T17:17:25.632Z,553.78
2022-12-23T17:19:29.710Z,557.40
2022-12-23T17:21:36.718Z,551.47
2022-12-23T17:23:40.654Z,567.25
2022-12-23T17:25:45.042Z,552.35
2022-12-23T17:27:49.987Z,542.38
2022-12-23T17:29:53.295Z,549.25
2022-12-23T17:31:58.195Z,554.80
2022-12-23T17:34:01.700Z,552.40
2022-12-23T17:36:05.551Z,551.15
2022-12-23T17:38:13.334Z,554.10
2022-12-23T17:40:17.807Z,562.33
2022-12-23T17:42:25.859Z,556.75
2022-12-23T17:44:29.240Z,549.08
2022-12-23T17:46:32.834Z,553.67
2022-12-23T17:48:37.951Z,549.97
2022-12-23T17:50:42.936Z,552.05
2022-12-23T17:52:46.915Z,554.55
2022-12-23T17:54:52.183Z,549.92
2022-12-23T17:56:56.106Z,554.55
2022-12-23T17:58:59.929Z,568.17
2022-12-23T18:01:03.273Z,570.95
2022-12-23T18:03:07.672Z,559.70
2022-12-23T18:05:22.629Z,551.88
2022-12-23T18:07:26.780Z,544.63
2022-12-23T18:09:30.106Z,579.92
2022-12-23T18:11:37.252Z,567.97
2022-12-23T18:13:40.618Z,575.80
2022-12-23T18:15:45.383Z,552.30
2022-12-23T18:17:48.960Z,571.97
2022-12-23T18:19:52.731Z,560.40
2022-12-23T18:21:57.634Z,564.20
2022-12-23T18:24:01.180Z,555.03
2022-12-23T18:26:04.955Z,566.03
2022-12-23T18:28:08.648Z,581.72
2022-12-23T18:30:13.158Z,552.65
2022-12-23T18:32:23.250Z,549.65
2022-12-23T18:34:26.603Z,581.15
2022-12-23T18:36:33.168Z,574.38
2022-12-23T18:38:37.994Z,557.38
2022-12-23T18:40:42.802Z,566.40
2022-12-23T18:42:47.008Z,559.85
2022-12-23T18:44:50.314Z,552.05
2022-12-23T18:46:53.755Z,561.33
2022-12-23T18:48:57.295Z,567.60
2022-12-23T18:51:00.692Z,559.55
2022-12-23T18:53:04.689Z,567.78
2022-12-23T18:55:11.747Z,558.00
2022-12-23T18:57:15.120Z,576.45
2022-12-23T18:59:27.512Z,568.97
2022-12-23T19:01:33.229Z,564.42
2022-12-23T19:03:36.661Z,558.67
2022-12-23T19:05:40.181Z,564.28
2022-12-23T19:07:43.703Z,566.90
2022-12-23T19:09:47.050Z,550.88
2022-12-23T19:11:53.413Z,560.85
2022-12-23T19:13:56.768Z,553.28
2022-12-23T19:16:00.162Z,561.28
2022-12-23T19:18:03.523Z,572.33
2022-12-23T19:20:08.979Z,560.25
2022-12-23T19:22:12.419Z,573.20
2022-12-23T19:24:15.728Z,552.88
2022-12-23T19:26:19.150Z,559.20
2022-12-23T19:28:24.285Z,545.75
2022-12-23T19:30:27.718Z,561.95
2022-12-23T19:32:31.402Z,550.70
2022-12-23T19:34:35.102Z,551.40
2022-12-23T19:36:39.692Z,544.53
2022-12-23T19:38:43.343Z,568.97
2022-12-23T19:40:46.701Z,558.83
2022-12-23T19:42:50.043Z,556.70
2022-12-23T19:44:54.719Z,562.50
2022-12-23T19:46:58.130Z,556.55
2022-12-23T19:49:01.606Z,564.13
2022-12-23T19:51:07.643Z,557.65
2022-12-23T19:53:11.250Z,548.28
2022-12-23T19:55:15.619Z,552.50
2022-12-23T19:57:19.013Z,552.83
2022-12-23T19:59:22.507Z,563.17
2022-12-23T20:01:27.963Z,551.78
2022-12-23T20:03:31.436Z,558.60
2022-12-23T20:05:34.826Z,549.45
2022-12-23T20:07:38.276Z,548.80
2022-12-23T20:09:41.644Z,552.03
2022-12-23T20:11:46.673Z,542.97
2022-12-23T20:13:53.239Z,559.30
2022-12-23T20:15:56.690Z,578.25
2022-12-23T20:18:01.411Z,569.10
2022-12-23T20:20:06.994Z,553.40
2022-12-23T20:22:10.346Z,546.10
2022-12-23T20:24:14.438Z,575.58
2022-12-23T20:26:19.178Z,565.97
2022-12-23T20:28:22.556Z,560.42
2022-12-23T20:30:27.721Z,554.10
2022-12-23T20:32:31.088Z,547.05
2022-12-23T20:34:39.567Z,554.05
2022-12-23T20:36:43.574Z,562.90
2022-12-23T20:38:48.026Z,546.85
2022-12-23T20:40:51.514Z,551.88
2022-12-23T20:42:55.077Z,549.75
2022-12-23T20:44:58.371Z,552.03
2022-12-23T20:47:01.947Z,551.92
2022-12-23T20:49:05.695Z,556.20
2022-12-23T20:51:13.516Z,550.28
2022-12-23T20:53:17.527Z,550.53
2022-12-23T20:55:20.864Z,550.78
2022-12-23T20:57:24.587Z,550.72
2022-12-23T20:59:28.141Z,549.90
2022-12-23T21:01:33.103Z,548.22
2022-12-23T21:03:36.984Z,548.05
2022-12-23T21:05:40.537Z,544.17
2022-12-23T21:07:45.266Z,551.67
2022-12-23T21:09:48.729Z,549.65
2022-12-23T21:11:52.146Z,540.70
2022-12-23T21:13:57.764Z,549.85
2022-12-23T21:16:03.912Z,556.42
2022-12-23T21:18:07.343Z,552.72
2022-12-23T21:20:11.297Z,549.13
2022-12-23T21:22:14.668Z,549.00
2022-12-23T21:24:19.969Z,551.65
2022-12-23T21:26:25.107Z,546.38
2022-12-23T21:28:28.551Z,557.03
2022-12-23T21:30:31.943Z,546.47
2022-12-23T21:32:35.445Z,545.78
2022-12-23T21:34:39.032Z,555.22
2022-12-23T21:36:43.129Z,549.88
2022-12-23T21:38:46.719Z,549.55
2022-12-23T21:40:51.462Z,542.75
2022-12-23T21:42:54.863Z,559.92
2022-12-23T21:44:58.273Z,547.13
2022-12-23T21:47:01.615Z,553.30
2022-12-23T21:49:05.205Z,552.42
2022-12-23T21:51:11.488Z,549.15
2022-12-23T21:53:15.010Z,551.65
2022-12-23T21:55:18.381Z,556.10
2022-12-23T21:57:23.184Z,549.40
2022-12-23T21:59:32.819Z,551.38
2022-12-23T22:01:38.950Z,541.92
2022-12-23T22:03:43.291Z,554.55
2022-12-23T22:05:46.679Z,551.70
2022-12-23T22:07:50.113Z,552.78
2022-12-23T22:09:53.609Z,548.33
2022-12-23T22:11:57.725Z,550.78
2022-12-23T22:14:04.799Z,550.15
2022-12-23T22:16:10.732Z,552.55
2022-12-23T22:18:14.098Z,551.88
2022-12-23T22:20:17.573Z,546.20
2022-12-23T22:22:20.876Z,554.70
2022-12-23T22:24:24.369Z,555.58
2022-12-23T22:26:29.902Z,544.45
2022-12-23T22:28:34.842Z,539.42
2022-12-23T22:30:39.591Z,548.13
2022-12-23T22:32:43.032Z,549.55
2022-12-23T22:34:46.347Z,550.50
2022-12-23T22:36:50.867Z,545.70
2022-12-23T22:38:56.642Z,549.80
2022-12-23T22:41:00.046Z,553.30
2022-12-23T22:43:03.423Z,544.63
2022-12-23T22:45:09.182Z,553.40
2022-12-23T22:47:14.053Z,546.05
2022-12-23T22:49:18.020Z,541.08
2022-12-23T22:51:23.158Z,542.60
2022-12-23T22:53:29.868Z,551.25
2022-12-23T22:55:33.435Z,552.65
2022-12-23T22:57:36.832Z,546.00
2022-12-23T22:59:40.277Z,549.83
2022-12-23T23:01:43.697Z,552.42
2022-12-23T23:03:50.969Z,559.15
2022-12-23T23:05:59.569Z,554.38
2022-12-23T23:08:02.923Z,562.47
2022-12-23T23:10:07.595Z,553.75
2022-12-23T23:12:10.937Z,554.38
2022-12-23T23:14:14.668Z,557.35
2022-12-23T23:16:18.510Z,545.78
2022-12-23T23:18:21.934Z,553.45
2022-12-23T23:20:26.639Z,549.75
2022-12-23T23:22:30.024Z,550.88
2022-12-23T23:24:34.164Z,555.38
2022-12-23T23:26:37.574Z,548.47
2022-12-23T23:28:41.927Z,557.13
2022-12-23T23:30:45.590Z,548.88
2022-12-23T23:32:49.127Z,554.92
2022-12-23T23:34:52.526Z,559.50
2022-12-23T23:36:57.893Z,561.10
2022-12-23T23:39:01.192Z,561.03
2022-12-23T23:41:04.846Z,556.85
2022-12-23T23:43:08.308Z,563.03
2022-12-23T23:45:12.084Z,567.15
2022-12-23T23:47:15.591Z,561.75
2022-12-23T23:49:19.055Z,556.80
2022-12-23T23:51:22.358Z,564.58
2022-12-23T23:53:27.022Z,557.55
2022-12-23T23:55:30.790Z,556.33
2022-12-23T23:57:34.168Z,552.45
2022-12-23T23:59:37.676Z,560.08
